createdAt,value
2018-05-08T00:00:03.465Z,15.60
2018-05-08T00:02:33.392Z,15.60
2018-05-08T00:05:04.366Z,15.50
2018-05-08T00:07:35.253Z,15.50
2018-05-08T00:10:05.633Z,15.50
2018-05-08T00:12:36.778Z,15.50
2018-05-08T00:15:07.302Z,15.50
2018-05-08T00:17:37.782Z,15.40
2018-05-08T00:20:07.774Z,15.40
2018-05-08T00:22:37.888Z,15.50
2018-05-08T00:25:08.995Z,15.40
2018-05-08T00:27:39.928Z,15.40
2018-05-08T00:30:10.027Z,15.30
2018-05-08T00:32:41.259Z,15.30
2018-05-08T00:35:11.364Z,14.20
2018-05-08T00:37:42.006Z,15.30
2018-05-08T00:40:12.161Z,15.20
2018-05-08T00:42:42.417Z,15.30
2018-05-08T00:45:12.971Z,15.30
2018-05-08T00:47:43.218Z,15.30
2018-05-08T00:50:13.269Z,15.20
2018-05-08T00:52:43.706Z,15.00
2018-05-08T00:55:14.621Z,14.90
2018-05-08T00:57:44.717Z,14.90
2018-05-08T01:00:15.391Z,15.00
2018-05-08T01:02:45.448Z,15.10
2018-05-08T01:05:15.890Z,14.80
2018-05-08T01:07:46.048Z,14.80
2018-05-08T01:10:17.288Z,14.70
2018-05-08T01:12:48.180Z,14.70
2018-05-08T01:15:18.283Z,14.50
2018-05-08T01:17:48.488Z,14.60
2018-05-08T01:20:19.126Z,14.50
2018-05-08T01:22:49.078Z,14.40
2018-05-08T01:25:19.625Z,14.50
2018-05-08T01:27:49.492Z,14.60
2018-05-08T01:30:19.707Z,14.60
2018-05-08T01:32:49.982Z,14.60
2018-05-08T01:35:20.071Z,14.40
2018-05-08T01:37:50.584Z,14.60
2018-05-08T01:40:20.832Z,14.50
2018-05-08T01:42:51.770Z,14.50
2018-05-08T01:45:22.015Z,14.60
2018-05-08T01:47:52.238Z,14.60
2018-05-08T01:50:22.794Z,14.60
2018-05-08T01:52:53.075Z,14.50
2018-05-08T01:55:23.009Z,14.50
2018-05-08T01:57:53.507Z,14.40
2018-05-08T02:00:24.286Z,14.30
2018-05-08T02:02:54.447Z,14.30
2018-05-08T02:05:25.171Z,14.20
2018-05-08T02:07:55.779Z,14.00
2018-05-08T02:10:27.011Z,14.00
2018-05-08T02:12:57.046Z,14.00
2018-05-08T02:15:27.810Z,13.90
2018-05-08T02:17:58.182Z,13.90
2018-05-08T02:20:28.408Z,14.00
2018-05-08T02:22:58.509Z,14.00
2018-05-08T02:25:29.397Z,13.90
2018-05-08T02:28:00.324Z,13.90
2018-05-08T02:30:31.569Z,13.80
2018-05-08T02:33:02.909Z,13.70
2018-05-08T02:35:33.068Z,13.50
2018-05-08T02:38:03.148Z,13.30
2018-05-08T02:40:33.152Z,15.00
2018-05-08T02:43:03.847Z,13.40
2018-05-08T02:45:34.272Z,13.50
2018-05-08T02:48:05.096Z,13.70
2018-05-08T02:50:35.197Z,13.80
2018-05-08T02:53:06.201Z,13.80
2018-05-08T02:55:37.251Z,13.80
2018-05-08T02:58:07.269Z,13.80
2018-05-08T03:00:38.068Z,13.80
2018-05-08T03:03:08.314Z,13.90
2018-05-08T03:05:38.266Z,13.90
2018-05-08T03:08:08.379Z,13.90
2018-05-08T03:10:40.447Z,13.80
2018-05-08T03:13:11.401Z,13.80
2018-05-08T03:15:41.610Z,13.80
2018-05-08T03:18:14.347Z,13.80
2018-05-08T03:20:44.430Z,13.80
2018-05-08T03:23:14.996Z,13.70
2018-05-08T03:25:45.152Z,13.80
2018-05-08T03:28:15.762Z,13.50
2018-05-08T03:30:46.303Z,13.50
2018-05-08T03:33:16.531Z,13.60
2018-05-08T03:35:47.374Z,13.60
2018-05-08T03:38:19.241Z,13.60
2018-05-08T03:40:50.097Z,13.50
2018-05-08T03:43:20.936Z,13.50
2018-05-08T03:45:50.991Z,13.40
2018-05-08T03:48:21.992Z,13.50
2018-05-08T03:50:52.425Z,13.50
2018-05-08T03:53:22.276Z,13.60
2018-05-08T03:55:52.232Z,13.60
2018-05-08T03:58:24.138Z,14.40
2018-05-08T04:05:16.836Z,13.30
2018-05-08T04:08:49.308Z,13.60
2018-05-08T04:11:19.964Z,13.40
2018-05-08T04:13:50.009Z,13.50
2018-05-08T04:16:19.923Z,13.60
2018-05-08T04:18:50.237Z,14.30
2018-05-08T04:21:21.007Z,13.80
2018-05-08T04:23:51.075Z,13.70
2018-05-08T04:26:23.221Z,12.10
2018-05-08T04:28:53.303Z,13.80
2018-05-08T04:31:23.255Z,12.00
2018-05-08T04:33:55.824Z,13.00
2018-05-08T04:36:26.370Z,13.00
2018-05-08T04:38:56.542Z,13.30
2018-05-08T04:41:26.635Z,13.60
2018-05-08T04:43:57.353Z,13.50
2018-05-08T04:46:27.604Z,13.50
2018-05-08T04:48:58.535Z,12.90
2018-05-08T04:51:29.425Z,12.80
2018-05-08T04:54:01.451Z,13.20
2018-05-08T04:56:31.489Z,13.10
2018-05-08T04:59:02.786Z,13.50
2018-05-08T05:01:32.663Z,13.80
2018-05-08T05:04:03.370Z,13.70
2018-05-08T05:06:36.576Z,13.80
2018-05-08T05:09:07.340Z,13.80
2018-05-08T05:11:37.530Z,13.80
2018-05-08T05:14:08.466Z,13.70
2018-05-08T05:19:51.674Z,14.80
2018-05-08T05:22:23.089Z,19.40
2018-05-08T05:24:53.648Z,19.40
2018-05-08T05:27:25.745Z,20.80
2018-05-08T05:29:57.803Z,22.40
2018-05-08T05:32:29.664Z,22.30
2018-05-08T05:34:59.789Z,22.60
2018-05-08T05:37:35.308Z,22.60
2018-05-08T05:40:06.228Z,22.40
2018-05-08T05:42:36.874Z,21.50
2018-05-08T05:45:08.161Z,23.30
2018-05-08T05:47:38.263Z,23.30
2018-05-08T05:50:08.686Z,24.00
2018-05-08T05:52:47.194Z,25.20
2018-05-08T05:55:24.359Z,25.10
2018-05-08T05:57:59.820Z,26.30
2018-05-08T06:00:30.875Z,27.40
2018-05-08T06:03:02.066Z,27.60
2018-05-08T06:05:32.486Z,27.50
2018-05-08T06:08:02.822Z,28.10
2018-05-08T06:10:44.047Z,28.40
2018-05-08T06:13:17.096Z,27.90
2018-05-08T06:15:48.830Z,27.80
2018-05-08T06:18:20.999Z,26.70
2018-05-08T06:20:51.766Z,25.60
2018-05-08T06:23:22.821Z,24.30
2018-05-08T06:25:53.670Z,23.20
2018-05-08T06:28:24.572Z,21.60
2018-05-08T06:31:05.104Z,21.60
2018-05-08T06:33:36.012Z,21.20
2018-05-08T06:36:07.530Z,20.10
2018-05-08T06:38:37.553Z,20.10
2018-05-08T06:41:07.638Z,20.00
2018-05-08T06:43:38.158Z,20.00
2018-05-08T06:46:09.865Z,20.00
2018-05-08T06:48:41.960Z,19.80
2018-05-08T06:51:16.330Z,19.80
2018-05-08T06:53:49.036Z,19.80
2018-05-08T06:56:19.303Z,19.70
2018-05-08T06:58:50.914Z,19.70
2018-05-08T07:01:21.116Z,19.80
2018-05-08T07:03:52.414Z,19.70
2018-05-08T07:06:23.739Z,19.90
2018-05-08T07:08:55.370Z,20.10
2018-05-08T07:11:27.348Z,20.10
2018-05-08T07:14:00.901Z,20.30
2018-05-08T07:16:31.948Z,20.30
2018-05-08T07:19:02.654Z,20.30
2018-05-08T07:21:33.847Z,20.40
2018-05-08T07:24:05.305Z,20.40
2018-05-08T07:26:36.002Z,20.50
2018-05-08T07:29:08.155Z,20.60
2018-05-08T07:31:40.566Z,20.60
2018-05-08T07:34:10.999Z,20.70
2018-05-08T07:36:42.319Z,20.70
2018-05-08T07:39:13.100Z,20.70
2018-05-08T07:41:45.200Z,20.70
2018-05-08T07:44:16.556Z,20.80
2018-05-08T07:46:47.179Z,20.80
2018-05-08T07:49:17.173Z,20.90
2018-05-08T07:51:49.385Z,21.00
2018-05-08T07:54:19.616Z,21.00
2018-05-08T07:56:50.682Z,21.10
2018-05-08T07:59:21.055Z,21.10
2018-05-08T08:01:51.352Z,21.10
2018-05-08T08:04:23.503Z,21.20
2018-05-08T08:06:54.962Z,21.30
2018-05-08T08:09:25.228Z,21.30
2018-05-08T08:11:56.855Z,21.20
2018-05-08T08:14:29.616Z,21.30
2018-05-08T08:17:00.588Z,21.30
2018-05-08T08:19:32.576Z,21.40
2018-05-08T08:22:02.960Z,21.40
2018-05-08T08:24:35.900Z,20.80
2018-05-08T08:27:06.459Z,20.80
2018-05-08T08:29:38.332Z,20.70
2018-05-08T08:32:09.026Z,21.00
2018-05-08T08:34:39.122Z,21.10
2018-05-08T08:37:09.877Z,21.00
2018-05-08T08:39:40.253Z,20.80
2018-05-08T08:42:12.181Z,21.30
2018-05-08T08:44:51.629Z,21.20
2018-05-08T08:47:22.020Z,21.50
2018-05-08T08:49:53.061Z,21.60
2018-05-08T08:52:23.439Z,21.60
2018-05-08T08:54:53.844Z,21.70
2018-05-08T08:57:24.188Z,21.80
2018-05-08T08:59:55.973Z,21.70
2018-05-08T09:02:27.408Z,21.40
2018-05-08T09:04:58.998Z,21.70
2018-05-08T09:07:35.342Z,21.70
2018-05-08T09:10:08.627Z,21.80
2018-05-08T09:12:40.393Z,21.70
2018-05-08T09:15:12.565Z,21.90
2018-05-08T09:17:44.399Z,22.10
2018-05-08T09:20:16.637Z,22.40
2018-05-08T09:22:57.606Z,22.30
2018-05-08T09:25:30.387Z,22.60
2018-05-08T09:28:00.651Z,23.30
2018-05-08T09:30:32.652Z,22.70
2018-05-08T09:33:04.234Z,22.80
2018-05-08T09:36:05.667Z,22.90
2018-05-08T09:38:39.043Z,22.80
2018-05-08T09:41:09.682Z,21.90
2018-05-08T09:43:42.353Z,23.00
2018-05-08T09:46:13.811Z,23.10
2018-05-08T09:48:44.184Z,23.20
2018-05-08T09:51:15.365Z,23.30
2018-05-08T09:53:46.405Z,23.40
2018-05-08T09:56:18.716Z,23.40
2018-05-08T09:58:50.022Z,23.50
2018-05-08T10:01:23.566Z,23.60
2018-05-08T10:03:53.976Z,23.50
2018-05-08T10:06:28.296Z,23.50
2018-05-08T10:09:00.049Z,23.50
2018-05-08T10:11:34.676Z,23.50
2018-05-08T10:14:09.503Z,23.20
2018-05-08T10:16:41.337Z,23.20
2018-05-08T10:19:12.324Z,23.40
2018-05-08T10:21:43.466Z,23.40
2018-05-08T10:24:14.997Z,23.60
2018-05-08T10:26:50.959Z,23.80
2018-05-08T10:29:25.390Z,24.50
2018-05-08T10:31:55.720Z,23.70
2018-05-08T10:34:30.908Z,23.60
2018-05-08T10:37:03.497Z,25.40
2018-05-08T10:39:35.407Z,24.10
2018-05-08T10:42:07.364Z,24.10
2018-05-08T10:44:40.927Z,25.20
2018-05-08T10:47:11.675Z,24.00
2018-05-08T10:49:43.521Z,24.20
2018-05-08T10:52:17.221Z,24.20
2018-05-08T10:54:50.298Z,24.20
2018-05-08T10:57:22.739Z,24.00
2018-05-08T10:59:54.553Z,23.90
2018-05-08T11:02:28.858Z,23.20
2018-05-08T11:05:05.224Z,23.90
2018-05-08T11:07:40.519Z,24.90
2018-05-08T11:10:12.870Z,24.40
2018-05-08T11:12:43.709Z,24.50
2018-05-08T11:15:17.026Z,24.60
2018-05-08T11:17:49.174Z,24.50
2018-05-08T11:20:22.137Z,24.80
2018-05-08T11:22:55.307Z,24.90
2018-05-08T11:25:36.653Z,24.50
2018-05-08T11:28:15.305Z,24.40
2018-05-08T11:30:48.397Z,24.40
2018-05-08T11:33:20.780Z,24.70
2018-05-08T11:35:54.303Z,24.40
2018-05-08T11:38:26.769Z,24.30
2018-05-08T11:41:01.553Z,24.80
2018-05-08T11:43:36.049Z,24.70
2018-05-08T11:46:09.252Z,24.70
2018-05-08T11:48:44.396Z,24.50
2018-05-08T11:51:26.604Z,24.40
2018-05-08T11:53:58.767Z,24.40
2018-05-08T11:56:37.209Z,24.80
2018-05-08T11:59:09.656Z,24.70
2018-05-08T12:01:41.055Z,24.90
2018-05-08T12:04:13.627Z,24.80
2018-05-08T12:06:46.024Z,24.80
2018-05-08T12:09:19.429Z,25.00
2018-05-08T12:11:55.748Z,24.90
2018-05-08T12:14:27.286Z,25.00
2018-05-08T12:16:59.476Z,25.10
2018-05-08T12:19:33.710Z,25.30
2018-05-08T12:22:15.652Z,24.20
2018-05-08T12:24:47.525Z,25.20
2018-05-08T12:27:22.192Z,25.40
2018-05-08T12:29:55.593Z,25.50
2018-05-08T12:32:29.547Z,25.70
2018-05-08T12:35:02.289Z,25.70
2018-05-08T12:37:34.522Z,25.80
2018-05-08T12:40:12.028Z,25.80
2018-05-08T12:42:44.850Z,25.60
2018-05-08T12:45:19.251Z,24.90
2018-05-08T12:47:51.280Z,24.80
2018-05-08T12:50:22.736Z,24.50
2018-05-08T12:52:54.106Z,24.30
2018-05-08T12:55:25.622Z,24.40
2018-05-08T12:57:58.692Z,24.80
2018-05-08T13:00:32.050Z,25.00
2018-05-08T13:03:02.844Z,24.90
2018-05-08T13:05:34.165Z,25.00
2018-05-08T13:08:07.686Z,25.10
2018-05-08T13:10:43.596Z,25.40
2018-05-08T13:13:18.484Z,25.30
2018-05-08T13:15:49.084Z,25.30
2018-05-08T13:18:23.117Z,25.30
2018-05-08T13:20:59.808Z,25.30
2018-05-08T13:23:36.720Z,25.40
2018-05-08T13:26:08.203Z,25.60
2018-05-08T13:28:43.090Z,25.90
2018-05-08T13:31:15.548Z,25.80
2018-05-08T13:33:47.182Z,26.00
2018-05-08T13:36:19.444Z,26.00
2018-05-08T13:38:50.495Z,26.00
2018-05-08T13:41:22.713Z,25.60
2018-05-08T13:43:59.526Z,25.60
2018-05-08T13:46:32.715Z,25.90
2018-05-08T13:49:06.153Z,24.80
2018-05-08T13:51:40.278Z,25.90
2018-05-08T13:54:11.721Z,25.90
2018-05-08T13:56:43.319Z,25.60
2018-05-08T13:59:16.731Z,25.70
2018-05-08T14:01:48.545Z,25.80
2018-05-08T14:04:21.401Z,25.90
2018-05-08T14:06:55.266Z,26.10
2018-05-08T14:09:26.882Z,25.80
2018-05-08T14:12:00.097Z,25.70
2018-05-08T14:14:32.231Z,25.90
2018-05-08T14:17:03.805Z,26.00
2018-05-08T14:19:37.351Z,26.00
2018-05-08T14:22:13.909Z,25.80
2018-05-08T14:24:46.900Z,25.80
2018-05-08T14:27:17.845Z,25.90
2018-05-08T14:29:50.396Z,26.10
2018-05-08T14:32:22.928Z,26.20
2018-05-08T14:34:54.309Z,26.20
2018-05-08T14:37:26.134Z,26.20
2018-05-08T14:39:59.219Z,26.40
2018-05-08T14:42:32.177Z,25.60
2018-05-08T14:45:07.757Z,25.80
2018-05-08T14:47:41.784Z,25.90
2018-05-08T14:50:18.665Z,25.90
2018-05-08T14:52:50.588Z,26.00
2018-05-08T14:55:22.484Z,25.80
2018-05-08T14:57:53.929Z,25.00
2018-05-08T15:00:26.352Z,25.50
2018-05-08T15:02:59.145Z,25.50
2018-05-08T15:05:30.517Z,25.80
2018-05-08T15:08:02.268Z,26.10
2018-05-08T15:10:34.368Z,25.90
2018-05-08T15:13:09.644Z,25.90
2018-05-08T15:15:41.932Z,25.90
2018-05-08T15:18:12.761Z,26.10
2018-05-08T15:20:45.757Z,26.00
2018-05-08T15:23:18.214Z,25.70
2018-05-08T15:25:49.692Z,25.40
2018-05-08T15:28:22.257Z,25.80
2018-05-08T15:30:53.400Z,25.80
2018-05-08T15:33:25.068Z,25.80
2018-05-08T15:35:55.687Z,25.90
2018-05-08T15:38:27.495Z,26.10
2018-05-08T15:41:00.477Z,26.30
2018-05-08T15:43:32.309Z,25.80
2018-05-08T15:46:03.578Z,26.50
2018-05-08T15:48:34.099Z,26.30
2018-05-08T15:51:06.255Z,26.30
2018-05-08T15:53:37.035Z,26.30
2018-05-08T15:56:08.468Z,26.30
2018-05-08T15:58:40.128Z,26.00
2018-05-08T16:01:16.318Z,26.30
2018-05-08T16:03:49.241Z,26.20
2018-05-08T16:06:21.477Z,25.50
2018-05-08T16:08:53.184Z,25.10
2018-05-08T16:11:25.616Z,25.20
2018-05-08T16:13:58.008Z,25.30
2018-05-08T16:16:28.981Z,24.30
2018-05-08T16:19:00.316Z,25.20
2018-05-08T16:21:31.621Z,25.20
2018-05-08T16:24:03.904Z,25.10
2018-05-08T16:26:34.521Z,25.10
2018-05-08T16:29:06.577Z,25.30
2018-05-08T16:31:39.352Z,25.30
2018-05-08T16:34:10.653Z,25.30
2018-05-08T16:36:44.078Z,25.20
2018-05-08T16:39:14.907Z,25.10
2018-05-08T16:41:46.247Z,25.00
2018-05-08T16:44:17.441Z,24.80
2018-05-08T16:46:48.645Z,24.90
2018-05-08T16:49:22.908Z,24.80
2018-05-08T16:51:54.387Z,24.80
2018-05-08T16:54:25.828Z,24.80
2018-05-08T16:56:57.087Z,24.60
2018-05-08T16:59:30.356Z,24.70
2018-05-08T17:02:03.909Z,24.80
2018-05-08T17:04:35.424Z,24.70
2018-05-08T17:07:06.842Z,24.70
2018-05-08T17:09:40.358Z,24.50
2018-05-08T17:12:11.756Z,24.60
2018-05-08T17:14:43.444Z,24.70
2018-05-08T17:17:14.729Z,24.70
2018-05-08T17:19:46.139Z,24.60
2018-05-08T17:22:19.113Z,24.50
2018-05-08T17:24:49.829Z,24.50
2018-05-08T17:27:21.421Z,24.50
2018-05-08T17:29:52.485Z,24.30
2018-05-08T17:32:23.128Z,24.30
2018-05-08T17:34:54.801Z,24.40
2018-05-08T17:37:25.546Z,24.30
2018-05-08T17:39:57.083Z,24.40
2018-05-08T17:42:28.402Z,24.30
2018-05-08T17:44:59.028Z,24.20
2018-05-08T17:47:30.245Z,24.20
2018-05-08T17:50:01.411Z,24.20
2018-05-08T17:52:33.133Z,24.30
2018-05-08T17:55:04.288Z,25.70
2018-05-08T17:57:35.668Z,23.90
2018-05-08T18:00:07.194Z,23.90
2018-05-08T18:02:37.499Z,24.00
2018-05-08T18:05:08.031Z,23.90
2018-05-08T18:07:42.170Z,23.80
2018-05-08T18:10:14.877Z,23.60
2018-05-08T18:12:59.781Z,23.60
2018-05-08T18:15:32.764Z,23.60
2018-05-08T18:18:03.638Z,23.70
2018-05-08T18:20:35.639Z,23.80
2018-05-08T18:23:07.034Z,23.90
2018-05-08T18:25:37.534Z,23.90
2018-05-08T18:28:09.140Z,23.90
2018-05-08T18:30:40.477Z,23.20
2018-05-08T18:33:12.100Z,23.90
2018-05-08T18:35:43.106Z,23.80
2018-05-08T18:38:14.923Z,23.80
2018-05-08T18:40:45.864Z,23.60
2018-05-08T18:43:16.657Z,23.60
2018-05-08T18:45:47.748Z,22.70
2018-05-08T18:48:19.294Z,23.30
2018-05-08T18:50:52.294Z,23.30
2018-05-08T18:53:25.194Z,22.90
2018-05-08T18:55:56.553Z,22.90
2018-05-08T18:58:26.782Z,22.80
2018-05-08T19:00:57.062Z,22.40
2018-05-08T19:03:29.518Z,22.30
2018-05-08T19:06:00.684Z,22.10
2018-05-08T19:08:32.633Z,22.70
2018-05-08T19:11:08.821Z,22.10
2018-05-08T19:13:39.731Z,22.10
2018-05-08T19:16:12.051Z,22.00
2018-05-08T19:18:47.382Z,22.00
2018-05-08T19:21:21.027Z,22.00
2018-05-08T19:23:56.784Z,22.70
2018-05-08T19:26:28.395Z,21.80
2018-05-08T19:31:07.214Z,21.70
2018-05-08T19:33:40.608Z,21.60
2018-05-08T19:36:16.198Z,21.50
2018-05-08T19:38:47.462Z,22.70
2018-05-08T19:41:18.614Z,21.40
2018-05-08T19:43:50.183Z,21.40
2018-05-08T19:46:21.942Z,20.60
2018-05-08T19:48:54.076Z,21.30
2018-05-08T19:51:25.176Z,21.20
2018-05-08T19:53:56.237Z,21.10
2018-05-08T19:56:26.975Z,21.10
2018-05-08T19:58:59.091Z,20.90
2018-05-08T20:01:30.562Z,20.80
2018-05-08T20:04:01.513Z,21.60
2018-05-08T20:06:33.357Z,20.70
2018-05-08T20:09:05.030Z,20.60
2018-05-08T20:11:35.469Z,20.70
2018-05-08T20:14:06.565Z,20.60
2018-05-08T20:16:36.787Z,20.50
2018-05-08T20:19:07.224Z,20.20
2018-05-08T20:21:38.056Z,20.40
2018-05-08T20:24:08.249Z,20.30
2018-05-08T20:26:40.801Z,20.30
2018-05-08T20:29:12.568Z,20.20
2018-05-08T20:31:42.875Z,20.00
2018-05-08T20:34:13.432Z,19.80
2018-05-08T20:36:43.614Z,19.80
2018-05-08T20:39:14.548Z,19.70
2018-05-08T20:41:44.789Z,19.70
2018-05-08T20:44:14.771Z,19.50
2018-05-08T20:46:47.476Z,19.50
2018-05-08T20:49:18.526Z,19.60
2018-05-08T20:51:49.142Z,19.60
2018-05-08T20:54:21.921Z,19.30
2018-05-08T20:56:53.553Z,19.40
2018-05-08T20:59:24.055Z,19.40
2018-05-08T21:01:54.895Z,21.00
2018-05-08T21:04:25.277Z,19.30
2018-05-08T21:06:56.989Z,19.00
2018-05-08T21:09:27.555Z,19.00
2018-05-08T21:11:59.320Z,19.10
2018-05-08T21:14:30.968Z,19.20
2018-05-08T21:17:02.573Z,19.10
2018-05-08T21:19:34.384Z,18.90
2018-05-08T21:22:07.035Z,18.90
2018-05-08T21:24:37.349Z,18.90
2018-05-08T21:27:08.876Z,18.80
2018-05-08T21:29:44.344Z,18.70
2018-05-08T21:32:15.401Z,18.70
2018-05-08T21:34:45.687Z,18.60
2018-05-08T21:37:15.832Z,18.40
2018-05-08T21:39:48.160Z,18.30
2018-05-08T21:42:19.660Z,18.40
2018-05-08T21:44:51.411Z,18.30
2018-05-08T21:47:22.074Z,18.30
2018-05-08T21:49:53.006Z,18.20
2018-05-08T21:52:24.085Z,18.20
2018-05-08T21:54:54.538Z,18.10
2018-05-08T21:57:24.891Z,17.90
2018-05-08T21:59:54.923Z,17.90
2018-05-08T22:02:25.326Z,17.90
2018-05-08T22:04:55.923Z,17.90
2018-05-08T22:07:26.456Z,18.90
2018-05-08T22:09:56.534Z,17.80
2018-05-08T22:12:26.824Z,17.80
2018-05-08T22:14:57.818Z,17.60
2018-05-08T22:17:27.934Z,17.50
2018-05-08T22:19:58.287Z,17.50
2018-05-08T22:22:28.893Z,17.60
2018-05-08T22:24:59.757Z,17.50
2018-05-08T22:27:30.842Z,17.60
2018-05-08T22:30:02.285Z,17.50
2018-05-08T22:32:32.226Z,17.50
2018-05-08T22:35:03.544Z,17.50
2018-05-08T22:37:35.809Z,17.50
2018-05-08T22:40:06.858Z,17.50
2018-05-08T22:42:37.145Z,17.50
2018-05-08T22:45:08.070Z,17.40
2018-05-08T22:47:39.371Z,17.30
2018-05-08T22:50:09.944Z,17.30
2018-05-08T22:52:39.902Z,17.20
2018-05-08T22:55:11.222Z,17.10
2018-05-08T22:57:42.081Z,17.10
2018-05-08T23:00:13.252Z,17.20
2018-05-08T23:02:43.874Z,17.10
2018-05-08T23:05:15.037Z,17.20
2018-05-08T23:07:45.701Z,17.10
2018-05-08T23:10:15.713Z,17.10
2018-05-08T23:12:45.742Z,17.00
2018-05-08T23:15:16.369Z,16.90
2018-05-08T23:17:46.593Z,16.90
2018-05-08T23:20:16.690Z,16.90
2018-05-08T23:22:47.208Z,16.90
2018-05-08T23:25:17.942Z,16.80
2018-05-08T23:27:49.296Z,16.70
2018-05-08T23:30:19.604Z,16.70
2018-05-08T23:32:50.588Z,15.40
2018-05-08T23:35:21.071Z,16.70
2018-05-08T23:37:51.522Z,16.60
2018-05-08T23:40:21.909Z,16.60
2018-05-08T23:42:53.039Z,16.60
2018-05-08T23:45:24.811Z,16.40
2018-05-08T23:47:55.424Z,16.50
2018-05-08T23:50:26.011Z,16.40
2018-05-08T23:52:56.489Z,16.40
2018-05-08T23:55:27.387Z,16.40
2018-05-08T23:57:58.829Z,16.40
